Time,TemperatureF,DewpointF,PressureIn,WindDirection,WindDirectionDegrees,WindSpeedMPH,WindSpeedGustMPH,Humidity,HourlyPrecipIn,Conditions,Clouds,dailyrainin,SoftwareType,DateUTC
2013-05-05 00:00:00,40.6,35.2,30.29,North,354,0.0,5.0,81,0.00,,,0.00,Wunderground v.1.15,2013-05-05 04:00:00,
2013-05-05 00:05:00,40.3,35.2,30.30,North,354,0.0,5.0,82,0.00,,,0.00,Wunderground v.1.15,2013-05-05 04:05:00,
2013-05-05 00:10:00,40.2,35.4,30.29,North,354,0.0,5.0,83,0.00,,,0.00,Wunderground v.1.15,2013-05-05 04:10:00,
2013-05-05 00:15:00,40.2,35.4,30.29,North,354,0.0,5.0,83,0.00,,,0.00,Wunderground v.1.15,2013-05-05 04:15:00,
2013-05-05 00:20:00,40.2,35.4,30.29,North,354,0.0,5.0,83,0.00,,,0.00,Wunderground v.1.15,2013-05-05 04:20:00,
2013-05-05 00:25:00,40.0,35.3,30.29,North,354,0.0,5.0,83,0.00,,,0.00,Wunderground v.1.15,2013-05-05 04:25:00,
2013-05-05 00:30:00,39.9,35.5,30.29,North,354,0.0,5.0,84,0.00,,,0.00,Wunderground v.1.15,2013-05-05 04:30:00,
2013-05-05 00:35:00,39.6,35.2,30.29,North,354,0.0,5.0,84,0.00,,,0.00,Wunderground v.1.15,2013-05-05 04:35:00,
2013-05-05 00:40:00,39.5,35.1,30.29,North,354,0.0,5.0,84,0.00,,,0.00,Wunderground v.1.15,2013-05-05 04:40:00,
2013-05-05 00:45:00,39.3,35.2,30.29,North,354,0.0,5.0,85,0.00,,,0.00,Wunderground v.1.15,2013-05-05 04:45:00,
2013-05-05 00:50:00,39.1,35.0,30.29,North,354,0.0,5.0,85,0.00,,,0.00,Wunderground v.1.15,2013-05-05 04:50:00,
2013-05-05 00:55:00,38.8,35.0,30.29,North,354,0.0,5.0,86,0.00,,,0.00,Wunderground v.1.15,2013-05-05 04:55:00,
2013-05-05 01:00:00,38.6,34.8,30.29,North,354,0.0,5.0,86,0.00,,,0.00,Wunderground v.1.15,2013-05-05 05:00:00,
2013-05-05 01:05:00,38.5,34.7,30.28,North,354,0.0,5.0,86,0.00,,,0.00,Wunderground v.1.15,2013-05-05 05:05:00,
2013-05-05 01:10:00,38.4,34.6,30.28,North,354,0.0,5.0,86,0.00,,,0.00,Wunderground v.1.15,2013-05-05 05:10:00,
2013-05-05 01:15:00,38.2,34.7,30.28,North,354,0.0,5.0,87,0.00,,,0.00,Wunderground v.1.15,2013-05-05 05:15:00,
2013-05-05 01:20:00,38.0,34.5,30.28,North,354,0.0,5.0,87,0.00,,,0.00,Wunderground v.1.15,2013-05-05 05:20:00,
2013-05-05 01:25:00,37.9,34.4,30.28,North,354,0.0,5.0,87,0.00,,,0.00,Wunderground v.1.15,2013-05-05 05:25:00,
2013-05-05 01:30:00,37.7,34.2,30.28,North,354,0.0,5.0,87,0.00,,,0.00,Wunderground v.1.15,2013-05-05 05:30:00,
2013-05-05 01:35:00,37.4,34.5,30.28,North,354,0.0,5.0,89,0.00,,,0.00,Wunderground v.1.15,2013-05-05 05:35:00,
2013-05-05 01:45:00,37.0,34.1,30.28,North,354,0.0,5.0,89,0.00,,,0.00,Wunderground v.1.15,2013-05-05 05:45:00,
2013-05-05 01:50:00,36.9,34.2,30.28,North,354,0.0,5.0,90,0.00,,,0.00,Wunderground v.1.15,2013-05-05 05:50:00,
2013-05-05 01:55:00,36.8,34.1,30.28,North,354,0.0,5.0,90,0.00,,,0.00,Wunderground v.1.15,2013-05-05 05:55:00,
2013-05-05 02:00:00,36.7,34.3,30.28,North,354,0.0,5.0,91,0.00,,,0.00,Wunderground v.1.15,2013-05-05 06:00:00,
2013-05-05 02:05:00,36.6,34.2,30.28,North,354,0.0,5.0,91,0.00,,,0.00,Wunderground v.1.15,2013-05-05 06:05:00,
2013-05-05 02:10:00,36.5,34.1,30.28,North,354,0.0,5.0,91,0.00,,,0.00,Wunderground v.1.15,2013-05-05 06:10:00,
2013-05-05 02:20:00,36.2,33.8,30.28,North,354,0.0,5.0,91,0.00,,,0.00,Wunderground v.1.15,2013-05-05 06:20:00,
2013-05-05 02:25:00,36.0,33.6,30.27,North,354,0.0,5.0,91,0.00,,,0.00,Wunderground v.1.15,2013-05-05 06:25:00,
2013-05-05 02:30:00,35.9,33.8,30.27,North,354,0.0,5.0,92,0.00,,,0.00,Wunderground v.1.15,2013-05-05 06:30:00,
2013-05-05 02:35:00,35.9,33.8,30.27,North,354,0.0,5.0,92,0.00,,,0.00,Wunderground v.1.15,2013-05-05 06:35:00,
2013-05-05 02:40:00,35.7,33.6,30.27,North,354,0.0,5.0,92,0.00,,,0.00,Wunderground v.1.15,2013-05-05 06:40:00,
2013-05-05 02:45:00,35.4,33.3,30.27,North,354,0.0,5.0,92,0.00,,,0.00,Wunderground v.1.15,2013-05-05 06:45:00,
2013-05-05 02:50:00,35.2,33.4,30.27,North,354,0.0,5.0,93,0.00,,,0.00,Wunderground v.1.15,2013-05-05 06:50:00,
2013-05-05 02:55:00,35.0,33.2,30.28,North,354,0.0,5.0,93,0.00,,,0.00,Wunderground v.1.15,2013-05-05 06:55:00,
2013-05-05 03:00:00,34.9,33.1,30.28,North,354,0.0,5.0,93,0.00,,,0.00,Wunderground v.1.15,2013-05-05 07:00:00,
2013-05-05 03:05:00,34.8,33.0,30.27,North,354,0.0,5.0,93,0.00,,,0.00,Wunderground v.1.15,2013-05-05 07:05:00,
2013-05-05 03:10:00,34.7,32.9,30.27,North,354,0.0,5.0,93,0.00,,,0.00,Wunderground v.1.15,2013-05-05 07:10:00,
2013-05-05 03:20:00,34.3,32.5,30.28,North,354,0.0,5.0,93,0.00,,,0.00,Wunderground v.1.15,2013-05-05 07:20:00,
2013-05-05 03:25:00,34.2,32.7,30.28,North,354,0.0,5.0,94,0.00,,,0.00,Wunderground v.1.15,2013-05-05 07:25:00,
2013-05-05 03:30:00,34.1,32.6,30.28,North,354,0.0,5.0,94,0.00,,,0.00,Wunderground v.1.15,2013-05-05 07:30:00,
2013-05-05 03:35:00,34.1,32.6,30.28,North,354,0.0,5.0,94,0.00,,,0.00,Wunderground v.1.15,2013-05-05 07:35:00,
2013-05-05 03:40:00,33.9,32.4,30.28,North,354,0.0,5.0,94,0.00,,,0.00,Wunderground v.1.15,2013-05-05 07:40:00,
2013-05-05 03:45:00,33.8,32.3,30.28,North,354,0.0,5.0,94,0.00,,,0.00,Wunderground v.1.15,2013-05-05 07:45:00,
2013-05-05 03:55:00,33.7,32.2,30.28,North,354,0.0,5.0,94,0.00,,,0.00,Wunderground v.1.15,2013-05-05 07:55:00,
2013-05-05 04:00:00,33.7,32.4,30.28,North,354,0.0,5.0,95,0.00,,,0.00,Wunderground v.1.15,2013-05-05 08:00:00,
2013-05-05 04:05:00,33.7,32.4,30.28,North,354,0.0,5.0,95,0.00,,,0.00,Wunderground v.1.15,2013-05-05 08:05:00,
2013-05-05 04:10:00,33.6,32.1,30.28,North,354,0.0,5.0,94,0.00,,,0.00,Wunderground v.1.15,2013-05-05 08:10:00,
2013-05-05 04:15:00,33.1,31.6,30.28,North,354,0.0,5.0,94,0.00,,,0.00,Wunderground v.1.15,2013-05-05 08:15:00,
2013-05-05 04:25:00,32.8,31.5,30.28,North,354,0.0,5.0,95,0.00,,,0.00,Wunderground v.1.15,2013-05-05 08:25:00,
2013-05-05 04:30:00,33.0,31.7,30.28,North,354,0.0,5.0,95,0.00,,,0.00,Wunderground v.1.15,2013-05-05 08:30:00,
2013-05-05 04:35:00,33.0,31.7,30.28,North,354,0.0,5.0,95,0.00,,,0.00,Wunderground v.1.15,2013-05-05 08:35:00,
2013-05-05 04:40:00,32.9,31.6,30.28,North,354,0.0,5.0,95,0.00,,,0.00,Wunderground v.1.15,2013-05-05 08:40:00,
2013-05-05 04:45:00,33.0,31.7,30.28,North,354,0.0,5.0,95,0.00,,,0.00,Wunderground v.1.15,2013-05-05 08:45:00,
2013-05-05 04:50:00,33.0,31.7,30.28,North,354,0.0,5.0,95,0.00,,,0.00,Wunderground v.1.15,2013-05-05 08:50:00,
2013-05-05 05:00:00,32.8,31.5,30.28,North,354,0.0,5.0,95,0.00,,,0.00,Wunderground v.1.15,2013-05-05 09:00:00,
2013-05-05 05:05:00,32.7,31.4,30.28,North,354,0.0,5.0,95,0.00,,,0.00,Wunderground v.1.15,2013-05-05 09:05:00,
2013-05-05 05:10:00,32.7,31.4,30.28,North,354,0.0,5.0,95,0.00,,,0.00,Wunderground v.1.15,2013-05-05 09:10:00,
2013-05-05 05:15:00,32.7,31.7,30.28,North,354,0.0,5.0,96,0.00,,,0.00,Wunderground v.1.15,2013-05-05 09:15:00,
2013-05-05 05:20:00,32.8,31.8,30.28,North,354,0.0,5.0,96,0.00,,,0.00,Wunderground v.1.15,2013-05-05 09:20:00,
2013-05-05 05:30:00,32.8,31.8,30.28,North,354,0.0,5.0,96,0.00,,,0.00,Wunderground v.1.15,2013-05-05 09:30:00,
2013-05-05 05:35:00,32.7,31.7,30.28,North,354,0.0,5.0,96,0.00,,,0.00,Wunderground v.1.15,2013-05-05 09:35:00,
2013-05-05 05:40:00,32.6,31.6,30.28,North,354,0.0,5.0,96,0.00,,,0.00,Wunderground v.1.15,2013-05-05 09:40:00,
2013-05-05 05:45:00,32.7,31.7,30.28,North,354,0.0,5.0,96,0.00,,,0.00,Wunderground v.1.15,2013-05-05 09:45:00,
2013-05-05 05:50:00,32.7,31.7,30.28,North,354,0.0,5.0,96,0.00,,,0.00,Wunderground v.1.15,2013-05-05 09:50:00,
2013-05-05 05:55:00,32.7,31.7,30.28,North,356,0.0,5.0,96,0.00,,,0.00,Wunderground v.1.15,2013-05-05 09:55:00,
2013-05-05 06:00:00,32.7,31.7,30.28,North,356,0.0,5.0,96,0.00,,,0.00,Wunderground v.1.15,2013-05-05 10:00:00,
2013-05-05 06:05:00,32.8,31.8,30.28,North,357,0.0,5.0,96,0.00,,,0.00,Wunderground v.1.15,2013-05-05 10:05:00,
2013-05-05 06:10:00,32.9,31.9,30.28,North,357,0.0,5.0,96,0.00,,,0.00,Wunderground v.1.15,2013-05-05 10:10:00,
2013-05-05 06:19:00,33.0,32.0,30.29,North,356,0.0,5.0,96,0.00,,,0.00,Wunderground v.1.15,2013-05-05 10:19:00,
2013-05-05 06:24:00,33.1,32.1,30.29,North,356,0.0,5.0,96,0.00,,,0.00,Wunderground v.1.15,2013-05-05 10:24:00,
2013-05-05 06:30:00,33.2,32.2,30.28,North,356,0.0,5.0,96,0.00,,,0.00,Wunderground v.1.15,2013-05-05 10:30:00,
2013-05-05 06:35:00,33.3,32.3,30.29,North,356,0.0,5.0,96,0.00,,,0.00,Wunderground v.1.15,2013-05-05 10:35:00,
2013-05-05 06:40:00,33.4,32.4,30.29,North,357,0.0,5.0,96,0.00,,,0.00,Wunderground v.1.15,2013-05-05 10:40:00,
2013-05-05 06:45:00,33.6,32.6,30.29,North,357,0.0,5.0,96,0.00,,,0.00,Wunderground v.1.15,2013-05-05 10:45:00,
2013-05-05 06:50:00,33.8,32.8,30.29,North,357,0.0,5.0,96,0.00,,,0.00,Wunderground v.1.15,2013-05-05 10:50:00,
2013-05-05 06:55:00,33.9,32.9,30.29,ENE,66,0.0,5.0,96,0.00,,,0.00,Wunderground v.1.15,2013-05-05 10:55:00,
2013-05-05 07:05:00,34.6,33.6,30.29,ESE,103,0.0,5.0,96,0.00,,,0.00,Wunderground v.1.15,2013-05-05 11:05:00,
2013-05-05 07:10:00,34.8,33.8,30.29,East,100,0.0,5.0,96,0.00,,,0.00,Wunderground v.1.15,2013-05-05 11:10:00,
2013-05-05 07:15:00,35.3,34.3,30.29,East,100,0.0,5.0,96,0.00,,,0.00,Wunderground v.1.15,2013-05-05 11:15:00,
2013-05-05 07:20:00,35.9,34.9,30.29,ESE,109,0.0,5.0,96,0.00,,,0.00,Wunderground v.1.15,2013-05-05 11:20:00,
2013-05-05 07:25:00,36.4,35.4,30.29,SE,125,0.0,5.0,96,0.00,,,0.00,Wunderground v.1.15,2013-05-05 11:25:00,
2013-05-05 07:30:00,37.0,35.4,30.29,SE,143,0.0,5.0,94,0.00,,,0.00,Wunderground v.1.15,2013-05-05 11:30:00,
2013-05-05 07:40:00,38.3,36.2,30.29,SE,129,0.0,5.0,92,0.00,,,0.00,Wunderground v.1.15,2013-05-05 11:40:00,
2013-05-05 07:45:00,38.9,36.2,30.28,ESE,123,0.0,5.0,90,0.00,,,0.00,Wunderground v.1.15,2013-05-05 11:45:00,
2013-05-05 07:50:00,39.6,36.6,30.28,SE,135,0.0,5.0,89,0.00,,,0.00,Wunderground v.1.15,2013-05-05 11:50:00,
2013-05-05 07:55:00,40.3,37.0,30.28,SE,138,0.0,5.0,88,0.00,,,0.00,Wunderground v.1.15,2013-05-05 11:55:00,
2013-05-05 08:00:00,40.7,36.8,30.28,SE,145,1.0,5.0,86,0.00,,,0.00,Wunderground v.1.15,2013-05-05 12:00:00,
2013-05-05 08:10:00,42.0,37.5,30.28,SE,131,1.0,5.0,84,0.00,,,0.00,Wunderground v.1.15,2013-05-05 12:10:00,
2013-05-05 08:15:00,43.0,37.9,30.28,SE,129,1.0,5.0,82,0.00,,,0.00,Wunderground v.1.15,2013-05-05 12:15:00,
2013-05-05 08:20:00,44.3,38.2,30.28,ESE,120,1.0,5.0,79,0.00,,,0.00,Wunderground v.1.15,2013-05-05 12:20:00,
2013-05-05 08:25:00,45.3,38.8,30.28,SE,141,1.0,5.0,78,0.00,,,0.00,Wunderground v.1.15,2013-05-05 12:25:00,
2013-05-05 08:30:00,46.3,39.1,30.28,SE,131,1.0,5.0,76,0.00,,,0.00,Wunderground v.1.15,2013-05-05 12:30:00,
2013-05-05 08:35:00,47.4,39.5,30.28,ESE,103,1.0,5.0,74,0.00,,,0.00,Wunderground v.1.15,2013-05-05 12:35:00,
2013-05-05 08:45:00,48.9,39.5,30.28,SE,142,1.0,5.0,70,0.00,,,0.00,Wunderground v.1.15,2013-05-05 12:45:00,
2013-05-05 08:50:00,49.6,39.8,30.28,SE,137,1.0,1.0,69,0.00,,,0.00,Wunderground v.1.15,2013-05-05 12:50:00,
2013-05-05 08:55:00,50.4,39.9,30.27,South,188,1.0,5.0,67,0.00,,,0.00,Wunderground v.1.15,2013-05-05 12:55:00,
2013-05-05 09:00:00,51.0,39.6,30.27,NNE,18,1.0,1.0,65,0.00,,,0.00,Wunderground v.1.15,2013-05-05 13:00:00,
2013-05-05 09:05:00,51.2,39.4,30.27,ESE,115,1.0,5.0,64,0.00,,,0.00,Wunderground v.1.15,2013-05-05 13:05:00,
2013-05-05 09:15:00,52.4,39.3,30.27,SE,142,2.0,5.0,61,0.00,,,0.00,Wunderground v.1.15,2013-05-05 13:15:00,
2013-05-05 09:20:00,53.0,39.0,30.27,SE,139,2.0,5.0,59,0.00,,,0.00,Wunderground v.1.15,2013-05-05 13:20:00,
2013-05-05 09:25:00,53.8,39.4,30.27,SE,125,2.0,5.0,58,0.00,,,0.00,Wunderground v.1.15,2013-05-05 13:25:00,
2013-05-05 09:30:00,54.8,40.3,30.27,ESE,115,1.0,5.0,58,0.00,,,0.00,Wunderground v.1.15,2013-05-05 13:30:00,
2013-05-05 09:35:00,54.9,39.5,30.27,SE,127,2.0,5.0,56,0.00,,,0.00,Wunderground v.1.15,2013-05-05 13:35:00,
2013-05-05 09:40:00,55.7,39.8,30.27,NE,48,2.0,2.0,55,0.00,,,0.00,Wunderground v.1.15,2013-05-05 13:40:00,
2013-05-05 09:45:00,56.5,39.6,30.26,SE,145,2.0,5.0,53,0.00,,,0.00,Wunderground v.1.15,2013-05-05 13:45:00,
2013-05-05 09:50:00,57.4,39.9,30.26,SE,127,1.0,5.0,52,0.00,,,0.00,Wunderground v.1.15,2013-05-05 13:50:00,
2013-05-05 09:55:00,57.6,40.6,30.26,SSE,149,1.0,5.0,53,0.00,,,0.00,Wunderground v.1.15,2013-05-05 13:55:00,
2013-05-05 10:00:00,58.4,39.8,30.26,SE,137,1.0,5.0,50,0.00,,,0.00,Wunderground v.1.15,2013-05-05 14:00:00,
2013-05-05 10:05:00,58.6,40.0,30.26,East,100,3.0,5.0,50,0.00,,,0.00,Wunderground v.1.15,2013-05-05 14:05:00,
2013-05-05 10:10:00,59.5,39.8,30.26,WSW,246,2.0,2.0,48,0.00,,,0.00,Wunderground v.1.15,2013-05-05 14:10:00,
2013-05-05 10:20:00,60.4,38.9,30.25,SSE,166,3.0,3.0,45,0.00,,,0.00,Wunderground v.1.15,2013-05-05 14:20:00,
2013-05-05 10:25:00,60.8,38.7,30.25,SE,145,3.0,5.0,44,0.00,,,0.00,Wunderground v.1.15,2013-05-05 14:25:00,
2013-05-05 10:30:00,61.1,40.1,30.25,North,8,2.0,2.0,46,0.00,,,0.00,Wunderground v.1.15,2013-05-05 14:30:00,
2013-05-05 10:35:00,62.1,39.3,30.24,North,359,1.0,5.0,43,0.00,,,0.00,Wunderground v.1.15,2013-05-05 14:35:00,
2013-05-05 10:40:00,62.6,39.2,30.24,SE,129,2.0,5.0,42,0.00,,,0.00,Wunderground v.1.15,2013-05-05 14:40:00,
2013-05-05 10:50:00,62.9,38.2,30.24,NE,50,3.0,3.0,40,0.00,,,0.00,Wunderground v.1.15,2013-05-05 14:50:00,
2013-05-05 10:55:00,63.3,37.2,30.24,NW,323,2.0,5.0,38,0.00,,,0.00,Wunderground v.1.15,2013-05-05 14:55:00,
2013-05-05 11:00:00,63.6,38.2,30.24,ESE,122,2.0,5.0,39,0.00,,,0.00,Wunderground v.1.15,2013-05-05 15:00:00,
2013-05-05 11:05:00,64.8,37.2,30.23,North,352,2.0,5.0,36,0.00,,,0.00,Wunderground v.1.15,2013-05-05 15:05:00,
2013-05-05 11:10:00,65.3,38.3,30.23,South,183,2.0,5.0,37,0.00,,,0.00,Wunderground v.1.15,2013-05-05 15:10:00,
2013-05-05 11:15:00,65.2,36.1,30.23,East,92,3.0,5.0,34,0.00,,,0.00,Wunderground v.1.15,2013-05-05 15:15:00,
2013-05-05 11:25:00,66.4,38.6,30.23,SSE,154,3.0,5.0,36,0.00,,,0.00,Wunderground v.1.15,2013-05-05 15:25:00,
2013-05-05 11:30:00,66.6,37.3,30.23,SW,236,3.0,3.0,34,0.00,,,0.00,Wunderground v.1.15,2013-05-05 15:30:00,
2013-05-05 11:35:00,66.8,36.8,30.23,SSE,156,3.0,5.0,33,0.00,,,0.00,Wunderground v.1.15,2013-05-05 15:35:00,
2013-05-05 11:40:00,66.4,35.6,30.23,SSE,149,3.0,5.0,32,0.00,,,0.00,Wunderground v.1.15,2013-05-05 15:40:00,
2013-05-05 11:45:00,66.7,35.9,30.22,SE,139,4.0,5.0,32,0.00,,,0.00,Wunderground v.1.15,2013-05-05 15:45:00,
2013-05-05 11:55:00,67.4,36.5,30.22,SSE,164,4.0,6.0,32,0.00,,,0.00,Wunderground v.1.15,2013-05-05 15:55:00,
2013-05-05 12:00:00,67.5,36.6,30.22,SSE,160,3.0,5.0,32,0.00,,,0.00,Wunderground v.1.15,2013-05-05 16:00:00,
2013-05-05 12:05:00,67.4,36.5,30.22,SE,134,4.0,5.0,32,0.00,,,0.00,Wunderground v.1.15,2013-05-05 16:05:00,
2013-05-05 12:10:00,68.5,37.5,30.22,ENE,75,4.0,5.0,32,0.00,,,0.00,Wunderground v.1.15,2013-05-05 16:10:00,
2013-05-05 12:15:00,68.9,37.0,30.21,SE,132,3.0,6.0,31,0.00,,,0.00,Wunderground v.1.15,2013-05-05 16:15:00,
2013-05-05 12:20:00,69.0,37.1,30.21,NE,36,3.0,3.0,31,0.00,,,0.00,Wunderground v.1.15,2013-05-05 16:20:00,
2013-05-05 12:30:00,68.9,37.8,30.21,SSE,149,3.0,5.0,32,0.00,,,0.00,Wunderground v.1.15,2013-05-05 16:30:00,
2013-05-05 12:35:00,69.5,37.5,30.20,SE,141,3.0,5.0,31,0.00,,,0.00,Wunderground v.1.15,2013-05-05 16:35:00,
2013-05-05 12:40:00,70.9,38.7,30.20,SE,129,3.0,3.0,31,0.00,,,0.00,Wunderground v.1.15,2013-05-05 16:40:00,
2013-05-05 12:45:00,71.5,36.7,30.20,SSE,149,2.0,5.0,28,0.00,,,0.00,Wunderground v.1.15,2013-05-05 16:45:00,
2013-05-05 12:50:00,71.3,37.4,30.20,ESE,111,3.0,3.0,29,0.00,,,0.00,Wunderground v.1.15,2013-05-05 16:50:00,
2013-05-05 13:00:00,71.6,36.8,30.19,SE,143,3.0,3.0,28,0.00,,,0.00,Wunderground v.1.15,2013-05-05 17:00:00,
2013-05-05 13:05:00,71.6,36.8,30.19,SE,141,3.0,5.0,28,0.00,,,0.00,Wunderground v.1.15,2013-05-05 17:05:00,
2013-05-05 13:10:00,71.3,36.5,30.19,SE,132,3.0,3.0,28,0.00,,,0.00,Wunderground v.1.15,2013-05-05 17:10:00,
2013-05-05 13:15:00,71.8,36.9,30.19,ESE,114,3.0,5.0,28,0.00,,,0.00,Wunderground v.1.15,2013-05-05 17:15:00,
2013-05-05 13:20:00,72.3,36.4,30.19,NE,52,2.0,2.0,27,0.00,,,0.00,Wunderground v.1.15,2013-05-05 17:20:00,
2013-05-05 13:25:00,72.6,35.7,30.19,SE,135,2.0,4.0,26,0.00,,,0.00,Wunderground v.1.15,2013-05-05 17:25:00,
2013-05-05 13:30:00,71.6,35.8,30.19,SE,141,4.0,4.0,27,0.00,,,0.00,Wunderground v.1.15,2013-05-05 17:30:00,
2013-05-05 13:35:00,71.5,34.8,30.19,ESE,120,5.0,7.0,26,0.00,,,0.00,Wunderground v.1.15,2013-05-05 17:35:00,
2013-05-05 13:40:00,72.4,36.5,30.19,ESE,120,3.0,3.0,27,0.00,,,0.00,Wunderground v.1.15,2013-05-05 17:40:00,
2013-05-05 13:45:00,72.9,34.0,30.19,SE,134,2.0,5.0,24,0.00,,,0.00,Wunderground v.1.15,2013-05-05 17:45:00,
2013-05-05 13:50:00,72.7,34.8,30.19,SSW,198,3.0,3.0,25,0.00,,,0.00,Wunderground v.1.15,2013-05-05 17:50:00,
2013-05-05 13:55:00,73.1,35.2,30.18,SE,129,3.0,4.0,25,0.00,,,0.00,Wunderground v.1.15,2013-05-05 17:55:00,
2013-05-05 14:00:00,73.5,36.5,30.18,SE,143,3.0,6.0,26,0.00,,,0.00,Wunderground v.1.15,2013-05-05 18:00:00,
2013-05-05 14:05:00,72.9,36.0,30.18,ESE,121,5.0,6.0,26,0.00,,,0.00,Wunderground v.1.15,2013-05-05 18:05:00,
2013-05-05 14:10:00,73.5,34.5,30.18,SE,135,4.0,8.0,24,0.00,,,0.00,Wunderground v.1.15,2013-05-05 18:10:00,
2013-05-05 14:15:00,71.9,33.1,30.18,SE,131,4.0,8.0,24,0.00,,,0.00,Wunderground v.1.15,2013-05-05 18:15:00,
2013-05-05 14:20:00,72.4,33.5,30.18,ESE,114,5.0,5.0,24,0.00,,,0.00,Wunderground v.1.15,2013-05-05 18:20:00,
2013-05-05 14:25:00,73.5,34.5,30.18,ESE,104,3.0,5.0,24,0.00,,,0.00,Wunderground v.1.15,2013-05-05 18:25:00,
2013-05-05 14:35:00,73.4,34.4,30.17,SE,139,2.0,5.0,24,0.00,,,0.00,Wunderground v.1.15,2013-05-05 18:35:00,
2013-05-05 14:40:00,74.6,34.3,30.17,SE,124,2.0,5.0,23,0.00,,,0.00,Wunderground v.1.15,2013-05-05 18:40:00,
2013-05-05 14:45:00,73.4,32.2,30.17,SE,134,4.0,5.0,22,0.00,,,0.00,Wunderground v.1.15,2013-05-05 18:45:00,
2013-05-05 14:50:00,73.7,33.6,30.17,ESE,104,5.0,5.0,23,0.00,,,0.00,Wunderground v.1.15,2013-05-05 18:50:00,
2013-05-05 14:55:00,73.8,33.7,30.16,ESE,120,4.0,6.0,23,0.00,,,0.00,Wunderground v.1.15,2013-05-05 18:55:00,
2013-05-05 15:00:00,73.6,33.5,30.16,SSE,148,4.0,5.0,23,0.00,,,0.00,Wunderground v.1.15,2013-05-05 19:00:00,
2013-05-05 15:10:00,73.5,33.4,30.16,SE,135,4.0,5.0,23,0.00,,,0.00,Wunderground v.1.15,2013-05-05 19:10:00,
2013-05-05 15:15:00,73.4,33.3,30.16,SE,135,4.0,5.0,23,0.00,,,0.00,Wunderground v.1.15,2013-05-05 19:15:00,
2013-05-05 15:20:00,73.2,33.2,30.16,WSW,250,5.0,5.0,23,0.00,,,0.00,Wunderground v.1.15,2013-05-05 19:20:00,
2013-05-05 15:25:00,73.9,33.7,30.16,ESE,122,4.0,5.0,23,0.00,,,0.00,Wunderground v.1.15,2013-05-05 19:25:00,
2013-05-05 15:30:00,74.2,34.0,30.16,NNE,33,3.0,3.0,23,0.00,,,0.00,Wunderground v.1.15,2013-05-05 19:30:00,
2013-05-05 15:40:00,74.1,33.9,30.16,ESE,122,4.0,4.0,23,0.00,,,0.00,Wunderground v.1.15,2013-05-05 19:40:00,
2013-05-05 15:45:00,74.0,34.9,30.15,South,176,3.0,5.0,24,0.00,,,0.00,Wunderground v.1.15,2013-05-05 19:45:00,
2013-05-05 15:50:00,74.5,34.2,30.15,SSE,151,3.0,3.0,23,0.00,,,0.00,Wunderground v.1.15,2013-05-05 19:50:00,
2013-05-05 15:55:00,74.1,35.0,30.15,South,181,3.0,5.0,24,0.00,,,0.00,Wunderground v.1.15,2013-05-05 19:55:00,
2013-05-05 16:00:00,74.0,34.9,30.15,ESE,121,4.0,7.0,24,0.00,,,0.00,Wunderground v.1.15,2013-05-05 20:00:00,
2013-05-05 16:05:00,74.0,33.8,30.15,SE,136,4.0,7.0,23,0.00,,,0.00,Wunderground v.1.15,2013-05-05 20:05:00,
2013-05-05 16:15:00,73.6,34.6,30.15,South,180,3.0,7.0,24,0.00,,,0.00,Wunderground v.1.15,2013-05-05 20:15:00,
2013-05-05 16:20:00,73.7,34.6,30.15,SE,134,4.0,4.0,24,0.00,,,0.00,Wunderground v.1.15,2013-05-05 20:20:00,
2013-05-05 16:25:00,73.3,34.3,30.15,SE,139,4.0,6.0,24,0.00,,,0.00,Wunderground v.1.15,2013-05-05 20:25:00,
2013-05-05 16:30:00,73.0,34.1,30.15,SE,145,4.0,4.0,24,0.00,,,0.00,Wunderground v.1.15,2013-05-05 20:30:00,
2013-05-05 16:35:00,73.8,34.7,30.14,SE,136,3.0,5.0,24,0.00,,,0.00,Wunderground v.1.15,2013-05-05 20:35:00,
2013-05-05 16:45:00,72.7,33.8,30.14,SE,129,5.0,5.0,24,0.00,,,0.00,Wunderground v.1.15,2013-05-05 20:45:00,
2013-05-05 16:50:00,72.7,34.8,30.14,SE,135,4.0,4.0,25,0.00,,,0.00,Wunderground v.1.15,2013-05-05 20:50:00,
2013-05-05 16:55:00,72.6,34.7,30.14,SE,139,4.0,5.0,25,0.00,,,0.00,Wunderground v.1.15,2013-05-05 20:55:00,
2013-05-05 17:00:00,72.2,35.4,30.14,SE,145,4.0,4.0,26,0.00,,,0.00,Wunderground v.1.15,2013-05-05 21:00:00,
2013-05-05 17:05:00,72.4,34.6,30.14,East,98,4.0,5.0,25,0.00,,,0.00,Wunderground v.1.15,2013-05-05 21:05:00,
2013-05-05 17:10:00,72.2,34.4,30.14,SSW,211,2.0,2.0,25,0.00,,,0.00,Wunderground v.1.15,2013-05-05 21:10:00,
2013-05-05 17:15:00,72.6,35.7,30.14,SSE,151,1.0,3.0,26,0.00,,,0.00,Wunderground v.1.15,2013-05-05 21:15:00,
2013-05-05 17:20:00,72.6,35.7,30.15,SE,145,2.0,2.0,26,0.00,,,0.00,Wunderground v.1.15,2013-05-05 21:20:00,
2013-05-05 17:25:00,72.3,35.5,30.15,South,190,3.0,4.0,26,0.00,,,0.00,Wunderground v.1.15,2013-05-05 21:25:00,
2013-05-05 17:30:00,72.2,36.3,30.15,South,188,2.0,2.0,27,0.00,,,0.00,Wunderground v.1.15,2013-05-05 21:30:00,
2013-05-05 17:35:00,71.8,36.0,30.14,SSE,158,2.0,5.0,27,0.00,,,0.00,Wunderground v.1.15,2013-05-05 21:35:00,
2013-05-05 17:40:00,71.4,35.7,30.15,SE,146,3.0,3.0,27,0.00,,,0.00,Wunderground v.1.15,2013-05-05 21:40:00,
2013-05-05 17:50:00,70.9,36.1,30.14,SE,131,2.0,5.0,28,0.00,,,0.00,Wunderground v.1.15,2013-05-05 21:50:00,
2013-05-05 17:55:00,70.6,36.8,30.15,SE,127,2.0,5.0,29,0.00,,,0.00,Wunderground v.1.15,2013-05-05 21:55:00,
2013-05-05 18:00:00,70.2,36.4,30.14,SSE,164,3.0,3.0,29,0.00,,,0.00,Wunderground v.1.15,2013-05-05 22:00:00,
2013-05-05 18:05:00,69.9,37.0,30.14,SE,145,2.0,5.0,30,0.00,,,0.00,Wunderground v.1.15,2013-05-05 22:05:00,
2013-05-05 18:10:00,69.6,36.8,30.14,SE,137,2.0,2.0,30,0.00,,,0.00,Wunderground v.1.15,2013-05-05 22:10:00,
2013-05-05 18:20:00,68.7,37.6,30.15,South,179,1.0,5.0,32,0.00,,,0.00,Wunderground v.1.15,2013-05-05 22:20:00,
2013-05-05 18:25:00,68.3,37.3,30.15,SE,129,2.0,5.0,32,0.00,,,0.00,Wunderground v.1.15,2013-05-05 22:25:00,
2013-05-05 18:30:00,67.8,37.6,30.15,SE,134,3.0,3.0,33,0.00,,,0.00,Wunderground v.1.15,2013-05-05 22:30:00,
2013-05-05 18:35:00,67.3,38.0,30.15,SSE,158,3.0,5.0,34,0.00,,,0.00,Wunderground v.1.15,2013-05-05 22:35:00,
2013-05-05 18:40:00,67.0,38.4,30.15,SSE,149,3.0,5.0,35,0.00,,,0.00,Wunderground v.1.15,2013-05-05 22:40:00,
2013-05-05 18:45:00,66.5,38.7,30.16,South,188,3.0,5.0,36,0.00,,,0.00,Wunderground v.1.15,2013-05-05 22:45:00,
2013-05-05 18:55:00,65.9,38.9,30.16,SE,135,4.0,5.0,37,0.00,,,0.00,Wunderground v.1.15,2013-05-05 22:55:00,
2013-05-05 19:00:00,65.6,39.3,30.16,SE,128,3.0,3.0,38,0.00,,,0.00,Wunderground v.1.15,2013-05-05 23:00:00,
2013-05-05 19:05:00,65.1,39.5,30.16,SE,124,2.0,5.0,39,0.00,,,0.00,Wunderground v.1.15,2013-05-05 23:05:00,
2013-05-05 19:10:00,64.5,39.6,30.16,NNE,26,1.0,5.0,40,0.00,,,0.00,Wunderground v.1.15,2013-05-05 23:10:00,
2013-05-05 19:15:00,63.9,40.3,30.16,East,80,1.0,5.0,42,0.00,,,0.00,Wunderground v.1.15,2013-05-05 23:15:00,
2013-05-05 19:25:00,62.7,40.5,30.16,NNE,27,1.0,5.0,44,0.00,,,0.00,Wunderground v.1.15,2013-05-05 23:25:00,
2013-05-05 19:30:00,62.2,40.6,30.16,NE,55,2.0,2.0,45,0.00,,,0.00,Wunderground v.1.15,2013-05-05 23:30:00,
2013-05-05 19:35:00,61.6,40.6,30.17,NNW,338,1.0,5.0,46,0.00,,,0.00,Wunderground v.1.15,2013-05-05 23:35:00,
2013-05-05 19:40:00,61.2,40.8,30.17,NNW,343,1.0,1.0,47,0.00,,,0.00,Wunderground v.1.15,2013-05-05 23:40:00,
2013-05-05 19:45:00,60.8,40.4,30.17,NNE,29,1.0,5.0,47,0.00,,,0.00,Wunderground v.1.15,2013-05-05 23:45:00,
2013-05-05 19:50:00,60.4,40.6,30.17,North,3,1.0,5.0,48,0.00,,,0.00,Wunderground v.1.15,2013-05-05 23:50:00,
2013-05-05 20:00:00,59.5,40.3,30.17,NE,35,2.0,5.0,49,0.00,,,0.00,Wunderground v.1.15,2013-05-06 00:00:00,
2013-05-05 20:05:00,59.1,40.5,30.17,NE,53,2.0,5.0,50,0.00,,,0.00,Wunderground v.1.15,2013-05-06 00:05:00,
2013-05-05 20:10:00,58.8,40.7,30.18,North,349,1.0,5.0,51,0.00,,,0.00,Wunderground v.1.15,2013-05-06 00:10:00,
2013-05-05 20:15:00,58.4,40.8,30.18,North,6,1.0,5.0,52,0.00,,,0.00,Wunderground v.1.15,2013-05-06 00:15:00,
2013-05-05 20:20:00,58.1,40.6,30.18,NNE,27,1.0,1.0,52,0.00,,,0.00,Wunderground v.1.15,2013-05-06 00:20:00,
2013-05-05 20:29:00,57.4,40.4,30.18,WNW,300,1.0,1.0,53,0.00,,,0.00,Wunderground v.1.15,2013-05-06 00:29:00,
2013-05-05 20:34:00,57.1,40.6,30.18,NE,39,0.0,5.0,54,0.00,,,0.00,Wunderground v.1.15,2013-05-06 00:34:00,
2013-05-05 20:39:00,56.7,40.7,30.18,NNE,18,0.0,5.0,55,0.00,,,0.00,Wunderground v.1.15,2013-05-06 00:39:00,
2013-05-05 20:45:00,56.3,40.8,30.19,NE,39,0.0,5.0,56,0.00,,,0.00,Wunderground v.1.15,2013-05-06 00:45:00,
2013-05-05 20:50:00,55.9,40.4,30.19,NE,53,0.0,5.0,56,0.00,,,0.00,Wunderground v.1.15,2013-05-06 00:50:00,
2013-05-05 20:55:00,55.6,40.6,30.19,NE,38,1.0,5.0,57,0.00,,,0.00,Wunderground v.1.15,2013-05-06 00:55:00,
2013-05-05 21:00:00,55.3,40.3,30.19,NE,41,1.0,5.0,57,0.00,,,0.00,Wunderground v.1.15,2013-05-06 01:00:00,
2013-05-05 21:05:00,54.8,40.7,30.19,NNE,21,0.0,5.0,59,0.00,,,0.00,Wunderground v.1.15,2013-05-06 01:05:00,
2013-05-05 21:10:00,54.2,41.0,30.19,NNE,23,0.0,5.0,61,0.00,,,0.00,Wunderground v.1.15,2013-05-06 01:10:00,
2013-05-05 21:15:00,53.7,40.6,30.20,NNE,22,0.0,5.0,61,0.00,,,0.00,Wunderground v.1.15,2013-05-06 01:15:00,
2013-05-05 21:20:00,53.2,40.9,30.20,North,5,0.0,5.0,63,0.00,,,0.00,Wunderground v.1.15,2013-05-06 01:20:00,
2013-05-05 21:25:00,52.7,40.9,30.19,NNE,14,0.0,5.0,64,0.00,,,0.00,Wunderground v.1.15,2013-05-06 01:25:00,
2013-05-05 21:35:00,52.0,40.6,30.20,NNE,15,0.0,5.0,65,0.00,,,0.00,Wunderground v.1.15,2013-05-06 01:35:00,
2013-05-05 21:40:00,51.4,40.4,30.20,NNE,13,0.0,5.0,66,0.00,,,0.00,Wunderground v.1.15,2013-05-06 01:40:00,
2013-05-05 21:45:00,51.0,40.4,30.20,NNE,13,1.0,5.0,67,0.00,,,0.00,Wunderground v.1.15,2013-05-06 01:45:00,
2013-05-05 21:50:00,50.6,40.4,30.20,NNE,13,0.0,5.0,68,0.00,,,0.00,Wunderground v.1.15,2013-05-06 01:50:00,
2013-05-05 21:55:00,50.3,40.5,30.20,NNE,13,0.0,5.0,69,0.00,,,0.00,Wunderground v.1.15,2013-05-06 01:55:00,
2013-05-05 22:05:00,49.7,40.3,30.20,NNE,13,0.0,5.0,70,0.00,,,0.00,Wunderground v.1.15,2013-05-06 02:05:00,
2013-05-05 22:10:00,49.4,40.0,30.20,NNE,13,0.0,5.0,70,0.00,,,0.00,Wunderground v.1.15,2013-05-06 02:10:00,
2013-05-05 22:15:00,49.1,40.1,30.20,NNE,13,0.0,5.0,71,0.00,,,0.00,Wunderground v.1.15,2013-05-06 02:15:00,
2013-05-05 22:20:00,48.9,40.3,30.20,NNE,13,0.0,5.0,72,0.00,,,0.00,Wunderground v.1.15,2013-05-06 02:20:00,
2013-05-05 22:25:00,48.7,40.1,30.20,NNE,13,0.0,5.0,72,0.00,,,0.00,Wunderground v.1.15,2013-05-06 02:25:00,
2013-05-05 22:30:00,48.5,40.2,30.20,NNE,13,0.0,5.0,73,0.00,,,0.00,Wunderground v.1.15,2013-05-06 02:30:00,
2013-05-05 22:40:00,48.0,40.1,30.20,NNE,13,0.0,5.0,74,0.00,,,0.00,Wunderground v.1.15,2013-05-06 02:40:00,
2013-05-05 22:45:00,47.6,40.1,30.20,NNE,13,0.0,5.0,75,0.00,,,0.00,Wunderground v.1.15,2013-05-06 02:45:00,
2013-05-05 22:50:00,47.3,39.8,30.20,NNE,13,0.0,5.0,75,0.00,,,0.00,Wunderground v.1.15,2013-05-06 02:50:00,
2013-05-05 22:55:00,47.3,39.8,30.20,NNE,13,0.0,5.0,75,0.00,,,0.00,Wunderground v.1.15,2013-05-06 02:55:00,
2013-05-05 23:00:00,47.1,39.9,30.20,NNE,13,0.0,5.0,76,0.00,,,0.00,Wunderground v.1.15,2013-05-06 03:00:00,
2013-05-05 23:10:00,46.7,39.5,30.20,NNE,13,0.0,5.0,76,0.00,,,0.00,Wunderground v.1.15,2013-05-06 03:10:00,
2013-05-05 23:15:00,46.4,39.6,30.20,NNE,13,0.0,5.0,77,0.00,,,0.00,Wunderground v.1.15,2013-05-06 03:15:00,
2013-05-05 23:20:00,46.2,39.7,30.20,NNE,13,0.0,5.0,78,0.00,,,0.00,Wunderground v.1.15,2013-05-06 03:20:00,
2013-05-05 23:25:00,46.0,39.5,30.20,NNE,13,0.0,5.0,78,0.00,,,0.00,Wunderground v.1.15,2013-05-06 03:25:00,
2013-05-05 23:30:00,46.0,39.5,30.20,NNE,13,0.0,5.0,78,0.00,,,0.00,Wunderground v.1.15,2013-05-06 03:30:00,
2013-05-05 23:35:00,45.9,39.8,30.20,NNE,13,0.0,5.0,79,0.00,,,0.00,Wunderground v.1.15,2013-05-06 03:35:00,
2013-05-05 23:45:00,45.3,39.5,30.20,NNE,13,0.0,5.0,80,0.00,,,0.00,Wunderground v.1.15,2013-05-06 03:45:00,
2013-05-05 23:50:00,45.0,39.2,30.20,NNE,13,0.0,5.0,80,0.00,,,0.00,Wunderground v.1.15,2013-05-06 03:50:00,
2013-05-05 23:55:00,44.8,39.3,30.20,NNE,13,0.0,5.0,81,0.00,,,0.00,Wunderground v.1.15,2013-05-06 03:55:00,